Time;durP1;ratioP1;P1;durP2;ratioP2;P2;SDS_P1;SDS_P2;PMS_P1;PMS_P2;Temp;Humidity;BMP_temperature;BMP_pressure;BME280_temperature;BME280_humidity;BME280_pressure;Samples;Min_cycle;Max_cycle;Signal;HPM_P1;HPM_P2
2022/07/22 00:01:21;;;;;;;;;;;;;;;23.96;57.88;100741.31;7408609;19;1396;-58
2022/07/22 00:03:49;;;;;;;;;;;;;;;23.96;57.74;100746.72;7409866;19;1607;-58
2022/07/22 00:06:18;;;;;;;;;;;;;;;23.92;57.81;100734.56;7409379;19;1753;-58
2022/07/22 00:08:46;;;;;;;;;;;;;;;23.98;57.52;100744.69;7411364;19;1013;-59
2022/07/22 00:11:17;;;;;;;;;;;;;;;24.05;57.50;100740.28;7407188;19;1494;-57
2022/07/22 00:13:45;;;;;;;;;;;;;;;24.02;57.77;100740.66;7407532;19;1840;-58
2022/07/22 00:16:14;;;;;;;;;;;;;;;23.99;57.55;100736.44;7410653;19;1371;-59
2022/07/22 00:18:42;;;;;;;;;;;;;;;23.99;57.81;100739.13;7409678;19;1513;-59
2022/07/22 00:21:11;;;;;;;;;;;;;;;24.01;57.60;100730.84;7408767;19;1556;-57
2022/07/22 00:23:39;;;;;;;;;;;;;;;23.98;57.38;100739.28;7410201;19;1565;-57
2022/07/22 00:26:08;;;;;;;;;;;;;;;23.99;57.82;100741.84;7409981;19;1544;-58
2022/07/22 00:28:39;;;;;;;;;;;;;;;23.90;57.78;100739.31;7409943;19;1671;-59
2022/07/22 00:31:08;;;;;;;;;;;;;;;23.81;57.88;100739.31;7408696;19;1671;-58
2022/07/22 00:33:36;;;;;;;;;;;;;;;23.87;58.05;100751.25;7406600;19;1863;-58
2022/07/22 00:36:06;;;;;;;;;;;;;;;23.89;58.10;100745.69;7409102;19;1204;-58
2022/07/22 00:38:34;;;;;;;;;;;;;;;23.89;57.83;100740.31;7409552;19;1009;-57
2022/07/22 00:41:03;;;;;;;;;;;;;;;23.81;58.34;100742.00;7406268;19;1695;-58
2022/07/22 00:43:50;;;;;;;;;;;;;;;23.82;58.18;100740.97;7408977;19;1516;-58
2022/07/22 00:46:21;;;;;;;;;;;;;;;23.85;57.90;100745.19;7409290;19;1533;-57
2022/07/22 00:48:50;;;;;;;;;;;;;;;23.81;58.16;100739.31;7408447;19;1623;-57
2022/07/22 00:51:18;;;;;;;;;;;;;;;23.81;58.17;100744.69;7408105;19;1595;-58
2022/07/22 00:53:47;;;;;;;;;;;;;;;23.82;58.27;100745.53;7408608;19;1839;-58
2022/07/22 00:56:16;;;;;;;;;;;;;;;23.77;58.41;100754.13;7405710;19;1668;-57
2022/07/22 00:58:45;;;;;;;;;;;;;;;23.87;58.18;100748.56;7406676;19;1551;-57
2022/07/22 01:01:14;;;;;;;;;;;;;;;23.91;58.04;100744.50;7408138;19;1569;-58
2022/07/22 01:03:45;;;;;;;;;;;;;;;23.93;57.64;100752.44;7407716;19;1632;-58
2022/07/22 01:06:14;;;;;;;;;;;;;;;23.92;57.76;100751.63;7407898;19;1600;-57
2022/07/22 01:08:43;;;;;;;;;;;;;;;23.92;57.89;100757.03;7408767;19;1529;-58
2022/07/22 01:11:12;;;;;;;;;;;;;;;23.85;57.98;100755.16;7407319;19;1568;-58
2022/07/22 01:13:42;;;;;;;;;;;;;;;23.87;58.05;100742.31;7406646;19;1849;-59
2022/07/22 01:16:11;;;;;;;;;;;;;;;23.89;58.00;100749.25;7408015;19;1541;-55
2022/07/22 01:18:41;;;;;;;;;;;;;;;23.90;57.92;100755.50;7407404;19;1567;-56
2022/07/22 01:21:12;;;;;;;;;;;;;;;23.97;57.93;100760.06;7407251;19;1665;-56
2022/07/22 01:23:41;;;;;;;;;;;;;;;23.95;57.89;100755.81;7408252;19;1600;-55
2022/07/22 01:26:09;;;;;;;;;;;;;;;23.98;57.77;100769.00;7406650;19;1616;-55
2022/07/22 01:28:38;;;;;;;;;;;;;;;23.92;57.83;100758.88;7406988;19;1283;-55
2022/07/22 01:31:06;;;;;;;;;;;;;;;23.91;57.88;100757.19;7406956;19;1293;-55
2022/07/22 01:33:35;;;;;;;;;;;;;;;23.89;57.88;100768.13;7405201;19;1845;-55
2022/07/22 01:36:03;;;;;;;;;;;;;;;23.89;57.76;100761.91;7407584;19;1544;-58
2022/07/22 01:38:34;;;;;;;;;;;;;;;23.80;57.88;100759.19;7408892;19;964;-59
2022/07/22 01:41:03;;;;;;;;;;;;;;;23.85;57.59;100765.94;7404531;19;1682;-59
2022/07/22 01:43:32;;;;;;;;;;;;;;;23.82;57.76;100759.88;7406495;19;1544;-58
2022/07/22 01:46:00;;;;;;;;;;;;;;;23.75;58.12;100753.41;7405285;19;1355;-58
2022/07/22 01:48:29;;;;;;;;;;;;;;;23.66;58.26;100762.53;7404499;19;1580;-57
2022/07/22 01:50:57;;;;;;;;;;;;;;;23.60;58.42;100763.19;7406981;19;1434;-58
2022/07/22 01:53:25;;;;;;;;;;;;;;;23.70;58.05;100755.78;7407075;19;1826;-58
2022/07/22 01:55:56;;;;;;;;;;;;;;;23.73;57.50;100750.03;7403030;19;1389;-57
2022/07/22 01:58:25;;;;;;;;;;;;;;;23.75;57.63;100758.81;7404086;19;1541;-58
2022/07/22 02:00:53;;;;;;;;;;;;;;;23.70;57.86;100752.25;7397764;19;1347;-58
2022/07/22 02:03:25;;;;;;;;;;;;;;;23.74;57.76;100767.94;7404763;19;1536;-58
2022/07/22 02:05:53;;;;;;;;;;;;;;;23.72;57.89;100751.06;7405574;19;1541;-59
2022/07/22 02:08:22;;;;;;;;;;;;;;;23.74;57.39;100757.13;7406529;19;1537;-58
2022/07/22 02:10:50;;;;;;;;;;;;;;;23.76;57.52;100757.81;7405078;19;1502;-58
2022/07/22 02:13:22;;;;;;;;;;;;;;;23.83;57.62;100766.13;7404822;19;1837;-58
2022/07/22 02:15:50;;;;;;;;;;;;;;;23.78;57.75;100765.78;7405764;19;1619;-58
2022/07/22 02:18:20;;;;;;;;;;;;;;;23.82;57.55;100767.13;7405613;19;1533;-58
2022/07/22 02:20:50;;;;;;;;;;;;;;;23.71;57.89;100760.16;7405972;19;1529;-58
2022/07/22 02:23:18;;;;;;;;;;;;;;;23.66;58.20;100762.53;7406142;19;1608;-58
2022/07/22 02:25:47;;;;;;;;;;;;;;;23.66;57.89;100765.22;7405718;19;1477;-58
2022/07/22 02:28:16;;;;;;;;;;;;;;;23.65;58.01;100771.63;7404010;19;1533;-58
2022/07/22 02:30:47;;;;;;;;;;;;;;;23.65;57.68;100766.22;7405200;19;1595;-58
2022/07/22 02:33:15;;;;;;;;;;;;;;;23.65;57.93;100770.78;7405352;19;1869;-58
2022/07/22 02:35:44;;;;;;;;;;;;;;;23.56;57.74;100759.16;7406058;19;1048;-58
2022/07/22 02:38:13;;;;;;;;;;;;;;;23.41;58.59;100775.13;7405321;19;1565;-56
2022/07/22 02:40:42;;;;;;;;;;;;;;;23.18;58.44;100762.25;7401909;19;1666;-58
2022/07/22 02:43:10;;;;;;;;;;;;;;;23.22;58.79;100760.06;7401440;19;1400;-59
2022/07/22 02:45:40;;;;;;;;;;;;;;;23.27;58.37;100754.19;7403313;19;1385;-59
2022/07/22 02:48:11;;;;;;;;;;;;;;;23.46;57.90;100775.50;7404223;19;1378;-59
2022/07/22 02:50:39;;;;;;;;;;;;;;;23.45;58.03;100764.84;7404031;19;1346;-59
2022/07/22 02:53:08;;;;;;;;;;;;;;;23.49;58.09;100771.59;7403906;19;1853;-61
2022/07/22 02:55:37;;;;;;;;;;;;;;;23.42;58.00;100761.47;7401005;19;1420;-60
2022/07/22 02:58:07;;;;;;;;;;;;;;;23.67;57.65;100783.09;7400713;19;1394;-62
2022/07/22 03:00:37;;;;;;;;;;;;;;;23.82;57.31;100764.44;7402311;19;1287;-61
2022/07/22 03:03:06;;;;;;;;;;;;;;;23.92;57.03;100756.19;7403106;19;1536;-62
2022/07/22 03:05:37;;;;;;;;;;;;;;;23.95;57.15;100761.22;7400293;19;1651;-61
2022/07/22 03:08:06;;;;;;;;;;;;;;;23.96;57.47;100750.25;7404236;19;1548;-61
2022/07/22 03:10:35;;;;;;;;;;;;;;;23.96;57.24;100752.13;7398496;19;1771;-61
2022/07/22 03:13:03;;;;;;;;;;;;;;;24.00;57.08;100761.59;7404087;19;1817;-61
2022/07/22 03:15:32;;;;;;;;;;;;;;;23.97;57.27;100764.59;7404580;19;1540;-61
2022/07/22 03:18:01;;;;;;;;;;;;;;;23.99;57.08;100773.38;7405462;19;1618;-61
2022/07/22 03:20:30;;;;;;;;;;;;;;;24.01;57.40;100779.47;7403677;19;1406;-61
2022/07/22 03:23:01;;;;;;;;;;;;;;;23.97;57.32;100781.69;7403890;19;1355;-61
2022/07/22 03:25:30;;;;;;;;;;;;;;;23.97;57.40;100778.09;7401924;19;1529;-61
2022/07/22 03:27:59;;;;;;;;;;;;;;;23.99;56.97;100784.19;7403587;19;1216;-61
2022/07/22 03:30:28;;;;;;;;;;;;;;;24.02;56.86;100786.56;7404629;19;964;-62
2022/07/22 03:32:56;;;;;;;;;;;;;;;24.02;56.96;100784.69;7401337;19;1856;-61
2022/07/22 03:35:25;;;;;;;;;;;;;;;23.99;56.92;100776.09;7403235;19;1732;-61
2022/07/22 03:37:53;;;;;;;;;;;;;;;23.99;57.15;100778.78;7400579;19;1676;-61
2022/07/22 03:40:25;;;;;;;;;;;;;;;24.02;57.02;100790.09;7402300;19;1458;-61
2022/07/22 03:42:53;;;;;;;;;;;;;;;24.04;56.87;100787.25;7403458;19;1369;-61
2022/07/22 03:45:22;;;;;;;;;;;;;;;24.06;57.10;100790.63;7404647;19;1021;-61
2022/07/22 03:47:51;;;;;;;;;;;;;;;24.04;56.70;100781.84;7401692;19;1479;-62
2022/07/22 03:50:19;;;;;;;;;;;;;;;24.08;56.86;100782.34;7402270;19;1372;-61
2022/07/22 03:52:48;;;;;;;;;;;;;;;24.09;56.69;100779.47;7402933;19;1371;-61
2022/07/22 03:55:16;;;;;;;;;;;;;;;24.15;56.64;100795.03;7399942;19;1857;-61
2022/07/22 03:57:48;;;;;;;;;;;;;;;24.12;56.60;100783.69;7402117;19;1752;-62
2022/07/22 04:00:16;;;;;;;;;;;;;;;24.14;56.77;100795.19;7403006;19;1597;-62
2022/07/22 04:02:45;;;;;;;;;;;;;;;24.14;56.95;100800.59;7401232;19;1521;-61
2022/07/22 04:05:14;;;;;;;;;;;;;;;24.15;56.97;100805.81;7402832;19;1572;-61
2022/07/22 04:07:42;;;;;;;;;;;;;;;24.18;56.78;100807.34;7402125;19;1541;-61
2022/07/22 04:10:12;;;;;;;;;;;;;;;24.15;56.87;100810.38;7402888;19;1630;-61
2022/07/22 04:12:42;;;;;;;;;;;;;;;24.15;56.48;100799.56;7406105;19;1702;-56
2022/07/22 04:15:13;;;;;;;;;;;;;;;24.21;56.72;100799.75;7407170;19;1868;-56
2022/07/22 04:17:42;;;;;;;;;;;;;;;24.18;56.95;100801.94;7409328;19;1619;-55
2022/07/22 04:20:11;;;;;;;;;;;;;;;24.18;56.56;100801.94;7409482;19;1513;-56
2022/07/22 04:22:40;;;;;;;;;;;;;;;24.21;56.52;100804.28;7409381;19;1619;-55
2022/07/22 04:25:09;;;;;;;;;;;;;;;24.23;56.51;100807.66;7410011;19;1396;-55
2022/07/22 04:27:38;;;;;;;;;;;;;;;24.25;56.76;100812.91;7409379;19;1546;-56
2022/07/22 04:30:07;;;;;;;;;;;;;;;24.25;56.59;100805.63;7408534;19;1419;-55
2022/07/22 04:32:38;;;;;;;;;;;;;;;24.25;56.57;100802.09;7408204;19;1486;-55
2022/07/22 04:35:07;;;;;;;;;;;;;;;24.29;56.38;100807.00;7405352;19;1853;-55
2022/07/22 04:37:36;;;;;;;;;;;;;;;24.29;56.45;100816.94;7408398;19;1403;-55
2022/07/22 04:40:05;;;;;;;;;;;;;;;24.36;56.44;100809.88;7409790;19;997;-56
2022/07/22 04:42:34;;;;;;;;;;;;;;;24.31;56.47;100810.38;7408910;19;1486;-56
2022/07/22 04:45:03;;;;;;;;;;;;;;;24.33;56.47;100823.69;7408838;19;1711;-56
2022/07/22 04:47:32;;;;;;;;;;;;;;;24.34;56.57;100822.72;7408557;19;1502;-55
2022/07/22 04:50:03;;;;;;;;;;;;;;;24.36;56.44;100821.50;7409125;19;1858;-55
2022/07/22 04:52:32;;;;;;;;;;;;;;;24.37;56.56;100825.91;7407900;19;1118;-55
2022/07/22 04:55:01;;;;;;;;;;;;;;;24.38;56.30;100824.06;7407118;19;1842;-56
2022/07/22 04:57:30;;;;;;;;;;;;;;;24.43;56.37;100832.47;7407219;19;1659;-56
2022/07/22 04:59:58;;;;;;;;;;;;;;;24.46;56.23;100828.63;7407138;19;1707;-55
2022/07/22 05:02:27;;;;;;;;;;;;;;;24.43;56.20;100818.97;7405655;19;1687;-55
2022/07/22 05:04:55;;;;;;;;;;;;;;;24.50;56.36;100844.34;7407082;19;1654;-56
2022/07/22 05:07:27;;;;;;;;;;;;;;;24.53;56.31;100840.44;7407880;19;1539;-55
2022/07/22 05:09:56;;;;;;;;;;;;;;;24.49;55.90;100831.81;7409644;19;987;-55
2022/07/22 05:12:24;;;;;;;;;;;;;;;24.53;56.12;100835.03;7407284;19;1437;-55
2022/07/22 05:14:53;;;;;;;;;;;;;;;24.51;56.00;100837.06;7405117;19;1865;-55
2022/07/22 05:17:21;;;;;;;;;;;;;;;24.54;55.86;100837.59;7406254;19;1356;-55
2022/07/22 05:19:50;;;;;;;;;;;;;;;24.55;55.97;100836.59;7407978;19;1601;-55
2022/07/22 05:22:19;;;;;;;;;;;;;;;24.54;56.03;100843.00;7407500;19;1512;-55
2022/07/22 05:24:50;;;;;;;;;;;;;;;24.58;56.01;100865.13;7408169;19;1696;-55
2022/07/22 05:27:19;;;;;;;;;;;;;;;24.58;56.17;100838.94;7407002;19;1690;-56
2022/07/22 05:29:48;;;;;;;;;;;;;;;24.57;55.85;100858.88;7407682;19;1251;-55
2022/07/22 05:32:17;;;;;;;;;;;;;;;24.57;56.02;100858.00;7407134;19;1212;-55
2022/07/22 05:34:45;;;;;;;;;;;;;;;24.56;55.97;100851.78;7405517;19;1861;-55
2022/07/22 05:37:15;;;;;;;;;;;;;;;24.58;56.07;100851.59;7405478;19;1351;-55
2022/07/22 05:39:44;;;;;;;;;;;;;;;24.56;56.01;100859.88;7408123;19;918;-55
2022/07/22 05:42:15;;;;;;;;;;;;;;;24.54;56.31;100843.00;7404658;19;1757;-55
2022/07/22 05:44:44;;;;;;;;;;;;;;;24.55;56.04;100849.22;7406507;19;1837;-55
2022/07/22 05:47:13;;;;;;;;;;;;;;;24.52;56.00;100855.00;7404623;19;1275;-56
2022/07/22 05:49:42;;;;;;;;;;;;;;;24.51;56.33;100840.66;7404848;19;1497;-56
2022/07/22 05:52:10;;;;;;;;;;;;;;;24.52;56.21;100842.31;7406017;19;1540;-55
2022/07/22 05:54:39;;;;;;;;;;;;;;;24.50;56.18;100852.47;7405966;19;1845;-56
2022/07/22 05:57:09;;;;;;;;;;;;;;;24.51;56.47;100856.88;7402193;19;1450;-56
2022/07/22 05:59:41;;;;;;;;;;;;;;;24.50;56.29;100849.75;7404291;19;1635;-55
2022/07/22 06:02:10;;;;;;;;;;;;;;;24.51;56.02;100854.16;7404518;19;1556;-55
2022/07/22 06:04:38;;;;;;;;;;;;;;;24.53;56.24;100857.53;7406081;19;1240;-61
2022/07/22 06:07:07;;;;;;;;;;;;;;;24.51;56.09;100854.16;7402322;19;1414;-60
2022/07/22 06:09:35;;;;;;;;;;;;;;;24.52;56.21;100852.28;7406190;19;1602;-61
2022/07/22 06:12:04;;;;;;;;;;;;;;;24.50;56.25;100857.88;7405432;19;1667;-55
2022/07/22 06:14:32;;;;;;;;;;;;;;;24.53;56.21;100857.53;7405798;19;1871;-60
2022/07/22 06:17:03;;;;;;;;;;;;;;;24.51;56.25;100835.25;7404898;19;1363;-56
2022/07/22 06:19:32;;;;;;;;;;;;;;;24.53;56.25;100851.25;7405105;19;1568;-61
2022/07/22 06:22:00;;;;;;;;;;;;;;;24.54;56.26;100855.66;7404498;19;1435;-55
2022/07/22 06:24:29;;;;;;;;;;;;;;;24.55;56.17;100857.34;7407148;19;981;-60
2022/07/22 06:26:57;;;;;;;;;;;;;;;24.54;56.32;100867.31;7402874;19;1350;-60
2022/07/22 06:29:26;;;;;;;;;;;;;;;24.56;56.41;100868.00;7402842;19;1286;-60
2022/07/22 06:31:55;;;;;;;;;;;;;;;24.55;56.28;100866.31;7404120;19;1502;-55
2022/07/22 06:34:26;;;;;;;;;;;;;;;24.52;56.27;100863.94;7404518;19;1849;-61
2022/07/22 06:36:54;;;;;;;;;;;;;;;24.59;56.22;100859.56;7407171;19;985;-60
2022/07/22 06:39:23;;;;;;;;;;;;;;;24.58;55.94;100855.16;7405142;19;1745;-61
2022/07/22 06:41:51;;;;;;;;;;;;;;;24.53;55.99;100851.25;7404586;19;1434;-55
2022/07/22 06:44:20;;;;;;;;;;;;;;;24.58;56.37;100870.53;7403548;19;1424;-54
2022/07/22 06:46:48;;;;;;;;;;;;;;;24.57;56.41;100858.88;7403606;19;1537;-60
2022/07/22 06:49:17;;;;;;;;;;;;;;;24.58;56.16;100860.56;7404714;19;1430;-61
2022/07/22 06:51:48;;;;;;;;;;;;;;;24.60;56.12;100841.47;7405316;19;1513;-55
2022/07/22 06:54:16;;;;;;;;;;;;;;;24.59;56.40;100850.56;7404581;19;1864;-60
2022/07/22 06:56:45;;;;;;;;;;;;;;;24.58;56.02;100857.84;7403316;19;1621;-55
2022/07/22 06:59:13;;;;;;;;;;;;;;;24.59;56.16;100851.44;7403931;19;1217;-61
2022/07/22 07:01:42;;;;;;;;;;;;;;;24.60;56.13;100885.56;7403108;19;1577;-55
2022/07/22 07:04:10;;;;;;;;;;;;;;;24.60;56.39;100874.75;7405523;19;1521;-61
2022/07/22 07:06:39;;;;;;;;;;;;;;;24.58;56.21;100863.25;7404954;19;1545;-60
2022/07/22 07:09:10;;;;;;;;;;;;;;;24.59;56.12;100867.66;7404690;19;1778;-56
2022/07/22 07:11:38;;;;;;;;;;;;;;;24.59;56.17;100862.25;7402479;19;1667;-61
2022/07/22 07:14:07;;;;;;;;;;;;;;;24.61;56.34;100864.78;7402980;19;1853;-61
2022/07/22 07:16:35;;;;;;;;;;;;;;;24.61;56.30;100876.47;7403720;19;1344;-55
2022/07/22 07:19:04;;;;;;;;;;;;;;;24.60;56.15;100880.16;7404646;19;1620;-60
2022/07/22 07:21:32;;;;;;;;;;;;;;;24.62;56.01;100869.19;7403566;19;1738;-55
2022/07/22 07:24:01;;;;;;;;;;;;;;;24.60;56.35;100885.56;7402989;19;1603;-55
2022/07/22 07:26:32;;;;;;;;;;;;;;;24.58;56.23;100886.75;7404186;19;1423;-61
2022/07/22 07:29:00;;;;;;;;;;;;;;;24.59;56.02;100875.78;7402746;19;1307;-56
2022/07/22 07:31:29;;;;;;;;;;;;;;;24.60;56.26;100887.44;7403610;19;1506;-61
2022/07/22 07:33:57;;;;;;;;;;;;;;;24.62;56.25;100877.28;7403305;19;1518;-55
2022/07/22 07:36:26;;;;;;;;;;;;;;;24.58;56.27;100876.78;7401210;19;1811;-55
2022/07/22 07:38:54;;;;;;;;;;;;;;;24.61;56.20;100889.09;7402916;19;1259;-61
2022/07/22 07:41:23;;;;;;;;;;;;;;;24.67;56.36;100888.44;7403507;19;1173;-60
2022/07/22 07:43:54;;;;;;;;;;;;;;;24.61;56.46;100892.69;7403337;19;1569;-55
2022/07/22 07:46:22;;;;;;;;;;;;;;;24.60;56.38;100890.97;7403530;19;1591;-60
2022/07/22 07:48:51;;;;;;;;;;;;;;;24.63;56.18;100889.81;7408678;19;1605;-61
2022/07/22 07:51:19;;;;;;;;;;;;;;;24.61;56.16;100898.09;7408671;19;1458;-61
2022/07/22 07:53:48;;;;;;;;;;;;;;;24.62;56.26;100888.09;7411111;19;1540;-55
2022/07/22 07:56:16;;;;;;;;;;;;;;;24.64;56.20;100885.25;7407994;19;1856;-55
2022/07/22 07:58:45;;;;;;;;;;;;;;;24.64;56.39;100891.47;7407856;19;1267;-56
2022/07/22 08:01:16;;;;;;;;;;;;;;;24.63;56.33;100880.84;7408405;19;1691;-60
2022/07/22 08:03:44;;;;;;;;;;;;;;;24.64;55.96;100890.66;7409576;19;1691;-55
2022/07/22 08:06:12;;;;;;;;;;;;;;;24.66;56.38;100896.72;7408082;19;1217;-61
2022/07/22 08:08:41;;;;;;;;;;;;;;;24.62;56.18;100882.69;7408995;19;1719;-61
2022/07/22 08:11:09;;;;;;;;;;;;;;;24.61;56.45;100903.50;7409165;19;1367;-61
2022/07/22 08:13:37;;;;;;;;;;;;;;;24.61;56.28;100899.91;7410584;19;1569;-61
2022/07/22 08:16:06;;;;;;;;;;;;;;;24.58;56.32;100887.59;7408270;19;1850;-55
2022/07/22 08:18:37;;;;;;;;;;;;;;;24.63;56.28;100880.84;7409515;19;1843;-56
2022/07/22 08:21:05;;;;;;;;;;;;;;;24.63;56.01;100894.34;7409692;19;1307;-55
2022/07/22 08:23:34;;;;;;;;;;;;;;;24.60;56.15;100904.50;7407793;19;1371;-57
2022/07/22 08:26:02;;;;;;;;;;;;;;;24.63;56.26;100894.34;7408441;19;1367;-55
2022/07/22 08:28:31;;;;;;;;;;;;;;;24.61;56.27;100891.81;7407010;19;1480;-60
2022/07/22 08:30:59;;;;;;;;;;;;;;;24.65;56.45;100889.63;7408332;19;1746;-56
2022/07/22 08:33:28;;;;;;;;;;;;;;;24.64;56.30;100891.47;7406306;19;1617;-61
2022/07/22 08:35:58;;;;;;;;;;;;;;;24.61;56.32;100898.09;7408374;19;1857;-60
2022/07/22 08:38:27;;;;;;;;;;;;;;;24.64;56.28;100891.47;7409998;19;1537;-55
2022/07/22 08:40:56;;;;;;;;;;;;;;;24.69;56.34;100893.66;7405098;19;1458;-61
2022/07/22 08:43:25;;;;;;;;;;;;;;;24.64;56.30;100902.31;7408167;19;1670;-55
2022/07/22 08:45:53;;;;;;;;;;;;;;;24.63;56.46;100888.94;7408729;19;1735;-61
2022/07/22 08:48:21;;;;;;;;;;;;;;;24.67;56.21;100879.47;7409128;19;1649;-55
2022/07/22 08:50:50;;;;;;;;;;;;;;;24.64;56.33;100890.66;7409714;19;1611;-55
2022/07/22 08:53:21;;;;;;;;;;;;;;;24.67;56.50;100906.50;7408384;19;1687;-61
2022/07/22 08:55:51;;;;;;;;;;;;;;;24.68;56.30;100900.09;7407591;19;1846;-55
2022/07/22 08:58:19;;;;;;;;;;;;;;;24.70;56.17;100895.38;7405188;19;1630;-55
2022/07/22 09:00:47;;;;;;;;;;;;;;;24.69;56.54;100891.84;7407473;19;1540;-61
2022/07/22 09:03:20;;;;;;;;;;;;;;;24.74;56.21;100891.31;7409125;19;1640;-60
2022/07/22 09:05:48;;;;;;;;;;;;;;;24.66;56.36;100896.72;7408734;19;1581;-55
2022/07/22 09:08:17;;;;;;;;;;;;;;;24.64;56.57;100896.06;7408819;19;1679;-56
2022/07/22 09:10:48;;;;;;;;;;;;;;;24.64;56.16;100880.66;7406724;19;1541;-55
2022/07/22 09:13:18;;;;;;;;;;;;;;;24.65;56.45;100882.38;7406648;19;1354;-55
2022/07/22 09:15:49;;;;;;;;;;;;;;;24.64;56.52;100882.53;7406853;19;1849;-61
2022/07/22 09:18:17;;;;;;;;;;;;;;;24.67;56.36;100895.69;7407975;19;1658;-60
2022/07/22 09:20:47;;;;;;;;;;;;;;;24.63;56.51;100883.53;7409710;19;951;-55
2022/07/22 09:23:17;;;;;;;;;;;;;;;24.67;56.55;100885.75;7408658;19;1541;-60
2022/07/22 09:25:48;;;;;;;;;;;;;;;24.66;56.23;100899.44;7407374;19;1774;-60
2022/07/22 09:28:18;;;;;;;;;;;;;;;24.65;56.28;100885.06;7406900;19;1797;-60
2022/07/22 09:30:50;;;;;;;;;;;;;;;24.67;56.57;100885.75;7407628;19;1623;-61
2022/07/22 09:33:19;;;;;;;;;;;;;;;24.63;56.37;100883.53;7407162;19;1636;-61
2022/07/22 09:35:47;;;;;;;;;;;;;;;24.68;56.57;100875.78;7406447;19;1865;-55
2022/07/22 09:38:17;;;;;;;;;;;;;;;24.67;56.29;100883.03;7407203;19;1590;-61
2022/07/22 09:40:49;;;;;;;;;;;;;;;24.64;56.42;100874.44;7408352;19;1552;-55
2022/07/22 09:43:18;;;;;;;;;;;;;;;24.67;56.23;100876.78;7406832;19;1722;-60
2022/07/22 09:45:48;;;;;;;;;;;;;;;24.67;56.35;100879.47;7407204;19;1639;-55
2022/07/22 09:48:17;;;;;;;;;;;;;;;24.66;56.18;100866.97;7407219;19;1627;-61
2022/07/22 09:50:45;;;;;;;;;;;;;;;24.68;56.53;100883.88;7407375;19;1324;-60
2022/07/22 09:53:13;;;;;;;;;;;;;;;24.67;56.30;100876.78;7404104;19;1521;-61
2022/07/22 09:55:42;;;;;;;;;;;;;;;24.69;56.40;100878.31;7403344;19;1867;-61
2022/07/22 09:58:13;;;;;;;;;;;;;;;24.68;56.62;100894.69;7403406;19;1550;-55
2022/07/22 10:00:42;;;;;;;;;;;;;;;24.67;56.46;100879.47;7405696;19;1646;-55
2022/07/22 10:03:13;;;;;;;;;;;;;;;24.68;56.31;100870.34;7407291;19;1295;-61
2022/07/22 10:05:43;;;;;;;;;;;;;;;24.71;56.32;100878.13;7407214;19;1556;-56
2022/07/22 10:08:12;;;;;;;;;;;;;;;24.69;56.45;100878.31;7405467;19;1810;-61
2022/07/22 10:10:41;;;;;;;;;;;;;;;24.68;56.56;100870.34;7404046;19;1462;-61
2022/07/22 10:13:10;;;;;;;;;;;;;;;24.65;56.63;100876.09;7406393;19;1505;-60
2022/07/22 10:15:41;;;;;;;;;;;;;;;24.67;56.43;100879.47;7404705;19;1866;-56
2022/07/22 10:18:10;;;;;;;;;;;;;;;24.68;56.47;100875.78;7406485;19;1525;-55
2022/07/22 10:20:38;;;;;;;;;;;;;;;24.74;56.32;100885.91;7406272;19;1468;-61
2022/07/22 10:23:08;;;;;;;;;;;;;;;24.68;56.44;100878.47;7405722;19;1335;-60
2022/07/22 10:25:50;;;;;;;;;;;;;;;24.67;56.67;100887.59;7405119;19;1643;-55
2022/07/22 10:28:23;;;;;;;;;;;;;;;24.70;56.39;100887.25;7405017;19;1695;-61
2022/07/22 10:30:54;;;;;;;;;;;;;;;24.67;56.48;100874.06;7404631;19;1660;-60
2022/07/22 10:33:23;;;;;;;;;;;;;;;24.64;56.45;100861.75;7404471;19;1635;-61
2022/07/22 10:35:56;;;;;;;;;;;;;;;24.71;56.48;100875.41;7404183;19;1860;-60
2022/07/22 10:38:25;;;;;;;;;;;;;;;24.68;56.68;100878.47;7406005;19;1545;-55
2022/07/22 10:40:57;;;;;;;;;;;;;;;24.71;56.68;100870.00;7405781;19;1446;-55
2022/07/22 10:43:26;;;;;;;;;;;;;;;24.67;56.48;100858.72;7404626;19;1789;-55
2022/07/22 10:45:58;;;;;;;;;;;;;;;24.72;56.59;100877.13;7404299;19;1678;-56
2022/07/22 10:48:28;;;;;;;;;;;;;;;24.67;56.34;100871.34;7405101;19;1652;-55
2022/07/22 10:51:06;;;;;;;;;;;;;;;24.66;56.84;100867.81;7405113;19;1521;-55
2022/07/22 10:53:45;;;;;;;;;;;;;;;24.67;56.63;100865.94;7405451;19;1674;-61
2022/07/22 10:56:18;;;;;;;;;;;;;;;24.65;56.68;100865.28;7403805;19;1890;-62
2022/07/22 10:58:48;;;;;;;;;;;;;;;24.67;56.43;100858.72;7402641;19;1784;-61
2022/07/22 11:01:20;;;;;;;;;;;;;;;24.65;56.61;100866.16;7403745;19;1513;-55
2022/07/22 11:03:49;;;;;;;;;;;;;;;24.65;56.58;100865.28;7404948;19;1548;-55
2022/07/22 11:06:19;;;;;;;;;;;;;;;24.67;56.64;100857.84;7403686;19;1707;-56
2022/07/22 11:08:48;;;;;;;;;;;;;;;24.67;56.47;100865.94;7404124;19;1226;-61
2022/07/22 11:11:16;;;;;;;;;;;;;;;24.67;56.21;100855.13;7404866;19;1639;-60
2022/07/22 11:13:45;;;;;;;;;;;;;;;24.69;56.58;100866.63;7404116;19;1299;-61
2022/07/22 11:16:21;;;;;;;;;;;;;;;24.67;56.61;100857.84;7402800;19;1846;-60
2022/07/22 11:18:53;;;;;;;;;;;;;;;24.67;56.39;100853.31;7404551;19;1797;-56
2022/07/22 11:21:22;;;;;;;;;;;;;;;24.70;56.48;100854.81;7406600;19;1714;-56
2022/07/22 11:23:51;;;;;;;;;;;;;;;24.68;56.40;100854.13;7412172;19;1621;-61
2022/07/22 11:26:20;;;;;;;;;;;;;;;24.68;56.61;100859.53;7412041;19;1600;-55
2022/07/22 11:28:48;;;;;;;;;;;;;;;24.70;56.75;100847.53;7411939;19;1356;-60
2022/07/22 11:31:18;;;;;;;;;;;;;;;24.69;56.43;100845.00;7411956;19;1769;-55
2022/07/22 11:33:49;;;;;;;;;;;;;;;24.71;56.75;100851.94;7410645;19;1699;-61
2022/07/22 11:36:17;;;;;;;;;;;;;;;24.74;56.87;100861.56;7408924;19;1846;-55
2022/07/22 11:38:47;;;;;;;;;;;;;;;24.69;56.38;100861.22;7411792;19;1635;-55
2022/07/22 11:41:16;;;;;;;;;;;;;;;24.69;56.61;100847.69;7411165;19;1344;-61
2022/07/22 11:43:45;;;;;;;;;;;;;;;24.68;56.44;100832.50;7411518;19;1492;-55
2022/07/22 11:46:14;;;;;;;;;;;;;;;24.71;56.87;100851.06;7410857;19;1748;-61
2022/07/22 11:48:42;;;;;;;;;;;;;;;24.70;56.72;100860.22;7410537;19;1542;-55
2022/07/22 11:51:15;;;;;;;;;;;;;;;24.71;56.79;100829.44;7409955;19;1628;-61
2022/07/22 11:53:44;;;;;;;;;;;;;;;24.71;56.79;100834.84;7411878;19;941;-55
2022/07/22 11:56:13;;;;;;;;;;;;;;;24.71;56.72;100842.97;7406820;19;1852;-55
2022/07/22 11:58:43;;;;;;;;;;;;;;;24.68;56.89;100816.28;7411255;19;1525;-55
2022/07/22 12:01:12;;;;;;;;;;;;;;;24.73;56.72;100833.69;7408673;19;1556;-55
2022/07/22 12:03:41;;;;;;;;;;;;;;;24.71;57.11;100821.31;7410795;19;1612;-55
2022/07/22 12:06:14;;;;;;;;;;;;;;;24.71;56.84;100821.31;7409609;19;1520;-55
2022/07/22 12:08:44;;;;;;;;;;;;;;;24.65;56.85;100817.47;7407357;19;1339;-61
2022/07/22 12:11:13;;;;;;;;;;;;;;;24.67;56.82;100815.44;7407541;19;1522;-55
2022/07/22 12:13:44;;;;;;;;;;;;;;;24.68;56.89;100805.47;7404913;19;1365;-61
2022/07/22 12:16:22;;;;;;;;;;;;;;;24.71;56.77;100813.22;7408426;19;1845;-56
2022/07/22 12:18:54;;;;;;;;;;;;;;;24.70;56.70;100820.50;7408826;19;1595;-55
2022/07/22 12:21:26;;;;;;;;;;;;;;;24.71;56.92;100815.91;7408716;19;1525;-55
2022/07/22 12:23:55;;;;;;;;;;;;;;;24.71;56.97;100800.56;7407787;19;1536;-60
2022/07/22 12:26:38;;;;;;;;;;;;;;;24.72;56.77;100804.09;7409753;19;1541;-61
2022/07/22 12:29:17;;;;;;;;;;;;;;;24.71;56.80;100814.09;7409458;19;1344;-60
2022/07/22 12:31:46;;;;;;;;;;;;;;;24.72;57.07;100798.69;7410373;19;1537;-61
2022/07/22 12:34:14;;;;;;;;;;;;;;;24.73;56.64;100793.13;7406308;19;1635;-55
2022/07/22 12:36:48;;;;;;;;;;;;;;;24.72;56.83;100793.28;7409399;19;1838;-56
2022/07/22 12:39:20;;;;;;;;;;;;;;;24.74;56.58;100793.94;7410225;19;1632;-61
2022/07/22 12:41:50;;;;;;;;;;;;;;;24.79;56.88;100797.84;7407819;19;1683;-55
2022/07/22 12:44:22;;;;;;;;;;;;;;;24.74;56.65;100772.31;7408341;19;1537;-61
2022/07/22 12:46:52;;;;;;;;;;;;;;;24.72;56.69;100774.34;7408180;19;1656;-60
2022/07/22 12:49:21;;;;;;;;;;;;;;;24.73;56.62;100760.66;7408783;19;1537;-61
2022/07/22 12:52:04;;;;;;;;;;;;;;;24.77;56.76;100771.94;7409542;19;1564;-59
2022/07/22 12:54:35;;;;;;;;;;;;;;;24.76;56.82;100781.94;7410296;19;1009;-61
2022/07/22 12:57:04;;;;;;;;;;;;;;;24.75;56.66;100779.41;7406525;19;1859;-61
2022/07/22 12:59:32;;;;;;;;;;;;;;;24.78;56.71;100781.78;7409299;19;1803;-55